Cabri, Canada
Current Conditions -  °F | °C
As of 10:23 AM on Monday 22 Dec 2014 (Local Time) from CYYN Reporting Station
Light Snow Light Snow  
Wind Chill:   Ceiling: 1000
Heat Index: 21°   Visibility: 6mi
Dew Point: 19°   Wind: 20mph
Humidity: 93%   Direction: 330°NNW
Pressure: 29.68"   Gusts: NA
Location:  50.62°N, 108.45°W
Report Text: CYYN 221623Z AUTO 33017KT 6SM -SN OVC010 M06/M07 A2968 RMK SLP092
Loading
Personal Weather Stations






























Interactive Weather Map New forecast layout! Learn more

10-Day Weather Forecast

Advertisements
Track Severe Weather on mobile